createdAt,value
2023-03-11T03:59:02.727Z,999.41
2023-03-11T04:00:02.687Z,999.39
2023-03-11T04:01:02.682Z,999.42
2023-03-11T04:02:02.733Z,999.44
2023-03-11T04:03:02.754Z,999.42
2023-03-11T04:04:02.685Z,999.39
2023-03-11T04:05:02.661Z,999.38
2023-03-11T04:06:02.622Z,999.45
2023-03-11T04:07:02.615Z,999.43
2023-03-11T04:08:02.617Z,999.43
2023-03-11T04:09:02.654Z,999.46
2023-03-11T04:10:02.635Z,999.44
2023-03-11T04:11:02.601Z,999.47
2023-03-11T04:12:02.598Z,999.49
2023-03-11T04:13:02.587Z,999.48
2023-03-11T04:14:02.585Z,999.45
2023-03-11T04:15:02.610Z,999.46
2023-03-11T04:16:02.595Z,999.47
2023-03-11T04:17:02.614Z,999.45
2023-03-11T04:18:02.564Z,999.48
2023-03-11T04:19:02.545Z,999.49
2023-03-11T04:20:02.569Z,999.49
2023-03-11T04:21:02.560Z,999.49
2023-03-11T04:22:02.564Z,999.44
2023-03-11T04:23:02.538Z,999.48
2023-03-11T04:24:02.523Z,999.53
2023-03-11T04:25:02.538Z,999.52
2023-03-11T04:26:02.512Z,999.56
2023-03-11T04:27:02.538Z,999.57
2023-03-11T04:28:02.537Z,999.59
2023-03-11T04:29:02.544Z,999.59
2023-03-11T04:30:02.505Z,999.61
2023-03-11T04:31:02.550Z,999.60
2023-03-11T04:32:02.530Z,999.61
2023-03-11T04:33:02.488Z,999.68
2023-03-11T04:34:02.488Z,999.65
2023-03-11T04:35:02.471Z,999.62
2023-03-11T04:36:02.683Z,999.66
2023-03-11T04:37:02.482Z,999.67
2023-03-11T04:38:02.461Z,999.67
2023-03-11T04:39:02.444Z,999.67
2023-03-11T04:40:02.459Z,999.68
2023-03-11T04:41:02.437Z,999.70
2023-03-11T04:42:04.047Z,999.74
2023-03-11T04:43:02.457Z,999.77
2023-03-11T04:44:02.444Z,999.74
2023-03-11T04:45:02.415Z,999.72
2023-03-11T04:46:02.451Z,999.72
2023-03-11T04:47:02.465Z,999.77
2023-03-11T04:48:02.398Z,999.78
2023-03-11T04:49:02.391Z,999.72
2023-03-11T04:50:02.391Z,999.75
2023-03-11T04:51:02.391Z,999.78
2023-03-11T04:52:02.411Z,999.80
2023-03-11T04:53:02.373Z,999.82
2023-03-11T04:54:02.401Z,999.84
2023-03-11T04:55:02.364Z,999.88
2023-03-11T04:56:02.368Z,999.88
2023-03-11T04:57:02.354Z,999.91
2023-03-11T04:58:02.346Z,999.90
2023-03-11T04:59:02.344Z,999.89
2023-03-11T05:00:02.368Z,999.93
2023-03-11T05:01:02.371Z,999.95
2023-03-11T05:02:02.330Z,999.94
2023-03-11T05:03:02.408Z,999.95
2023-03-11T05:04:02.321Z,999.95
2023-03-11T05:05:02.329Z,999.96
2023-03-11T05:06:02.320Z,999.97
2023-03-11T05:07:02.308Z,999.96
2023-03-11T05:08:02.311Z,999.98
2023-03-11T05:09:02.301Z,999.96
2023-03-11T05:10:02.304Z,999.99
2023-03-11T05:11:02.308Z,1000.02
2023-03-11T05:12:02.300Z,1000.00
2023-03-11T05:13:02.325Z,1000.04
2023-03-11T05:14:02.261Z,1000.08
2023-03-11T05:15:02.281Z,1000.09
2023-03-11T05:16:02.394Z,1000.13
2023-03-11T05:17:02.278Z,1000.14
2023-03-11T05:18:02.262Z,1000.13
2023-03-11T05:19:02.278Z,1000.14
2023-03-11T05:20:02.285Z,1000.12
2023-03-11T05:21:02.253Z,1000.16
2023-03-11T05:22:02.233Z,1000.15
2023-03-11T05:23:02.242Z,1000.15
2023-03-11T05:24:02.246Z,1000.14
2023-03-11T05:25:02.230Z,1000.18
2023-03-11T05:26:02.219Z,1000.20
2023-03-11T05:27:02.221Z,1000.21
2023-03-11T05:28:02.226Z,1000.23
2023-03-11T05:29:02.207Z,1000.23
2023-03-11T05:30:02.216Z,1000.29
2023-03-11T05:31:02.215Z,1000.29
2023-03-11T05:32:02.192Z,1000.28
2023-03-11T05:33:02.211Z,1000.34
2023-03-11T05:34:02.178Z,1000.37
2023-03-11T05:35:02.203Z,1000.42
2023-03-11T05:36:02.204Z,1000.44
2023-03-11T05:37:03.275Z,1000.45
2023-03-11T05:38:02.182Z,1000.47
2023-03-11T05:39:02.205Z,1000.51
2023-03-11T05:40:02.197Z,1000.48
2023-03-11T05:41:02.176Z,1000.50
2023-03-11T05:42:02.152Z,1000.47
2023-03-11T05:43:02.166Z,1000.48
2023-03-11T05:44:02.174Z,1000.55
2023-03-11T05:45:02.138Z,1000.54
2023-03-11T05:46:02.185Z,1000.58
2023-03-11T05:47:02.253Z,1000.58
2023-03-11T05:48:02.126Z,1000.58
2023-03-11T05:49:02.152Z,1000.59
2023-03-11T05:50:02.122Z,1000.60
2023-03-11T05:51:02.162Z,1000.61
2023-03-11T05:52:02.130Z,1000.59
2023-03-11T05:53:02.104Z,1000.58
2023-03-11T05:54:02.094Z,1000.60
2023-03-11T05:55:02.124Z,1000.65
2023-03-11T05:56:02.104Z,1000.66
2023-03-11T05:57:02.092Z,1000.62
2023-03-11T05:58:02.133Z,1000.67
2023-03-11T05:59:02.073Z,1000.65
2023-03-11T06:00:02.072Z,1000.68
2023-03-11T06:01:02.050Z,1000.69
2023-03-11T06:02:02.054Z,1000.72
2023-03-11T06:03:02.069Z,1000.75
2023-03-11T06:04:02.165Z,1000.74
2023-03-11T06:05:02.320Z,1000.77
2023-03-11T06:06:02.074Z,1000.82
2023-03-11T06:07:02.070Z,1000.81
2023-03-11T06:08:02.073Z,1000.82
2023-03-11T06:09:02.038Z,1000.85
2023-03-11T06:10:02.026Z,1000.86
2023-03-11T06:11:02.014Z,1000.84
2023-03-11T06:12:02.024Z,1000.88
2023-03-11T06:13:02.017Z,1000.90
2023-03-11T06:14:02.023Z,1000.93
2023-03-11T06:15:02.006Z,1000.93
2023-03-11T06:16:02.054Z,1000.94
2023-03-11T06:17:01.988Z,1000.95
2023-03-11T06:18:01.983Z,1000.98
2023-03-11T06:19:02.039Z,1000.99
2023-03-11T06:20:01.975Z,1001.00
2023-03-11T06:21:01.961Z,1001.04
2023-03-11T06:22:01.987Z,1001.04
2023-03-11T06:23:01.985Z,1000.99
2023-03-11T06:24:01.956Z,1001.05
2023-03-11T06:25:01.996Z,1001.06
2023-03-11T06:26:01.937Z,1001.06
2023-03-11T06:27:01.939Z,1001.11
2023-03-11T06:28:01.951Z,1001.11
2023-03-11T06:29:01.930Z,1001.13
2023-03-11T06:30:01.932Z,1001.16
2023-03-11T06:31:01.933Z,1001.18
2023-03-11T06:32:01.937Z,1001.22
2023-03-11T06:33:01.924Z,1001.28
2023-03-11T06:34:01.906Z,1001.31
2023-03-11T06:35:01.919Z,1001.30
2023-03-11T06:36:02.148Z,1001.35
2023-03-11T06:37:01.886Z,1001.32
2023-03-11T06:38:01.877Z,1001.31
2023-03-11T06:39:01.891Z,1001.33
2023-03-11T06:40:01.903Z,1001.35
2023-03-11T06:41:01.891Z,1001.35
2023-03-11T06:42:01.906Z,1001.38
2023-03-11T06:43:01.882Z,1001.38
2023-03-11T06:44:01.866Z,1001.39
2023-03-11T06:45:01.860Z,1001.43
2023-03-11T06:46:01.951Z,1001.45
2023-03-11T06:47:01.866Z,1001.44
2023-03-11T06:48:01.842Z,1001.46
2023-03-11T06:49:01.842Z,1001.47
2023-03-11T06:50:01.829Z,1001.48
2023-03-11T06:51:01.840Z,1001.47
2023-03-11T06:52:01.840Z,1001.52
2023-03-11T06:55:34.860Z,1001.48
2023-03-11T06:56:34.841Z,1001.49
2023-03-11T06:57:34.829Z,1001.51
2023-03-11T06:58:34.810Z,1001.52
2023-03-11T06:59:34.815Z,1001.55
2023-03-11T07:00:34.798Z,1001.54
2023-03-11T07:01:34.876Z,1001.54
2023-03-11T07:02:34.825Z,1001.57
2023-03-11T07:03:34.793Z,1001.61
2023-03-11T07:04:34.791Z,1001.63
2023-03-11T07:05:34.778Z,1001.68
2023-03-11T07:06:34.825Z,1001.73
2023-03-11T07:07:34.770Z,1001.71
2023-03-11T07:08:34.769Z,1001.70
2023-03-11T07:09:34.784Z,1001.73
2023-03-11T07:10:34.762Z,1001.73
2023-03-11T07:11:34.807Z,1001.76
2023-03-11T07:12:34.747Z,1001.79
2023-03-11T07:13:34.748Z,1001.84
2023-03-11T07:14:34.779Z,1001.83
2023-03-11T07:15:34.757Z,1001.89
2023-03-11T07:16:34.804Z,1001.89
2023-03-11T07:17:34.735Z,1001.91
2023-03-11T07:18:34.736Z,1001.92
2023-03-11T07:19:34.757Z,1001.96
2023-03-11T07:20:34.714Z,1001.96
2023-03-11T07:21:34.720Z,1001.95
2023-03-11T07:22:34.731Z,1001.97
2023-03-11T07:23:34.716Z,1002.00
2023-03-11T07:24:34.732Z,1002.01
2023-03-11T07:25:34.691Z,1002.02
2023-03-11T07:26:34.709Z,1002.04
2023-03-11T07:27:34.702Z,1002.04
2023-03-11T07:28:34.722Z,1002.11
2023-03-11T07:29:34.678Z,1002.13
2023-03-11T07:30:34.685Z,1002.18
2023-03-11T07:31:34.704Z,1002.15
2023-03-11T07:32:34.735Z,1002.14
2023-03-11T07:33:34.682Z,1002.20
2023-03-11T07:34:34.685Z,1002.21
2023-03-11T07:35:34.692Z,1002.25
2023-03-11T07:36:34.665Z,1002.25
2023-03-11T07:37:34.673Z,1002.28
2023-03-11T07:38:34.645Z,1002.28
2023-03-11T07:39:34.648Z,1002.29
2023-03-11T07:40:34.638Z,1002.31
2023-03-11T07:41:34.677Z,1002.33
2023-03-11T07:42:34.632Z,1002.39
2023-03-11T07:43:34.656Z,1002.33
2023-03-11T07:44:34.653Z,1002.39
2023-03-11T07:45:34.820Z,1002.40
2023-03-11T07:46:35.666Z,1002.40
2023-03-11T07:47:34.619Z,1002.42
2023-03-11T07:48:34.630Z,1002.45
2023-03-11T07:49:34.633Z,1002.49
2023-03-11T07:50:34.603Z,1002.50
2023-03-11T07:51:34.594Z,1002.55
2023-03-11T07:52:34.596Z,1002.53
2023-03-11T07:53:34.626Z,1002.54
2023-03-11T07:54:34.610Z,1002.61
2023-03-11T07:55:34.588Z,1002.59
2023-03-11T07:56:34.628Z,1002.60
2023-03-11T07:57:34.590Z,1002.61
2023-03-11T07:59:34.604Z,1002.59
2023-03-11T08:00:34.585Z,1002.62
2023-03-11T08:01:34.582Z,1002.64
2023-03-11T08:02:34.690Z,1002.63
2023-03-11T08:03:34.601Z,1002.64
2023-03-11T08:04:34.588Z,1002.65
2023-03-11T08:05:34.567Z,1002.68
2023-03-11T08:06:34.563Z,1002.65
2023-03-11T08:07:34.542Z,1002.67
2023-03-11T08:08:34.557Z,1002.70
2023-03-11T08:09:34.560Z,1002.72
2023-03-11T08:10:34.554Z,1002.76
2023-03-11T08:11:35.518Z,1002.76
2023-03-11T08:12:34.551Z,1002.77
2023-03-11T08:13:34.528Z,1002.77
2023-03-11T08:14:34.557Z,1002.82
2023-03-11T08:15:34.606Z,1002.87
2023-03-11T08:16:34.600Z,1002.87
2023-03-11T08:17:34.553Z,1002.90
2023-03-11T08:18:34.519Z,1002.92
2023-03-11T08:19:34.526Z,1002.96
2023-03-11T08:20:34.530Z,1002.96
2023-03-11T08:21:34.511Z,1002.94
2023-03-11T08:22:34.548Z,1002.98
2023-03-11T08:23:34.501Z,1002.97
2023-03-11T08:24:34.508Z,1002.98
2023-03-11T08:25:34.512Z,1002.98
2023-03-11T08:26:34.512Z,1002.98
2023-03-11T08:27:34.533Z,1002.99
2023-03-11T08:28:34.491Z,1002.98
2023-03-11T08:29:34.484Z,1002.96
2023-03-11T08:30:34.544Z,1002.99
2023-03-11T08:31:34.543Z,1002.96
2023-03-11T08:32:34.501Z,1002.99
2023-03-11T08:33:34.481Z,1003.01
2023-03-11T08:34:34.472Z,1002.97
2023-03-11T08:35:34.476Z,1003.03
2023-03-11T08:36:34.492Z,1003.04
2023-03-11T08:37:34.550Z,1003.09
2023-03-11T08:38:34.468Z,1003.09
2023-03-11T08:39:34.499Z,1003.07
2023-03-11T08:40:34.473Z,1003.08
2023-03-11T08:41:34.460Z,1003.11
2023-03-11T08:42:36.816Z,1003.17
2023-03-11T08:43:34.466Z,1003.16
2023-03-11T08:44:34.455Z,1003.13
2023-03-11T08:45:34.451Z,1003.16
2023-03-11T08:46:34.477Z,1003.15
2023-03-11T08:47:34.496Z,1003.16
2023-03-11T08:48:34.481Z,1003.18
2023-03-11T08:49:34.447Z,1003.22
2023-03-11T08:50:44.191Z,1003.23
2023-03-11T08:51:34.422Z,1003.26
2023-03-11T08:52:34.434Z,1003.26
2023-03-11T08:53:34.430Z,1003.31
2023-03-11T08:54:34.446Z,1003.28
2023-03-11T08:55:34.422Z,1003.34
2023-03-11T08:56:34.432Z,1003.32
2023-03-11T08:57:34.419Z,1003.35
2023-03-11T08:58:34.448Z,1003.36
2023-03-11T08:59:34.448Z,1003.38
2023-03-11T09:00:34.440Z,1003.35
2023-03-11T09:02:34.443Z,1003.39
2023-03-11T09:03:34.482Z,1003.39
2023-03-11T09:04:34.397Z,1003.40
2023-03-11T09:05:34.409Z,1003.38
2023-03-11T09:06:34.392Z,1003.38
2023-03-11T09:07:34.394Z,1003.40
2023-03-11T09:08:34.429Z,1003.36
2023-03-11T09:09:34.392Z,1003.40
2023-03-11T09:10:34.392Z,1003.43
2023-03-11T09:11:34.402Z,1003.41
2023-03-11T09:12:34.422Z,1003.43
2023-03-11T09:13:34.430Z,1003.48
2023-03-11T09:14:34.425Z,1003.44
2023-03-11T09:15:34.400Z,1003.46
2023-03-11T09:16:34.445Z,1003.50
2023-03-11T09:17:34.378Z,1003.50
2023-03-11T09:18:34.367Z,1003.51
2023-03-11T09:19:34.397Z,1003.49
2023-03-11T09:20:34.384Z,1003.50
2023-03-11T09:21:34.372Z,1003.49
2023-03-11T09:22:34.377Z,1003.49
2023-03-11T09:23:34.393Z,1003.51
2023-03-11T09:24:34.394Z,1003.56
2023-03-11T09:25:34.363Z,1003.56
2023-03-11T09:26:34.378Z,1003.58
2023-03-11T09:27:34.351Z,1003.55
2023-03-11T09:28:34.465Z,1003.59
2023-03-11T09:31:07.459Z,1003.59
2023-03-11T09:32:07.381Z,1003.54
2023-03-11T09:33:07.381Z,1003.58
2023-03-11T09:34:07.375Z,1003.56
2023-03-11T09:35:07.384Z,1003.56
2023-03-11T09:36:07.373Z,1003.57
2023-03-11T09:37:07.378Z,1003.53
2023-03-11T09:38:07.357Z,1003.54
2023-03-11T09:39:07.360Z,1003.53
2023-03-11T09:40:07.365Z,1003.55
2023-03-11T09:41:07.405Z,1003.49
2023-03-11T09:42:07.364Z,1003.50
2023-03-11T09:43:07.374Z,1003.51
2023-03-11T09:44:07.385Z,1003.55
2023-03-11T09:45:07.353Z,1003.52
2023-03-11T09:46:07.344Z,1003.51
2023-03-11T09:47:07.358Z,1003.52
2023-03-11T09:48:07.362Z,1003.53
2023-03-11T09:49:07.353Z,1003.54
2023-03-11T09:50:07.346Z,1003.56
2023-03-11T09:51:07.358Z,1003.56
2023-03-11T09:52:07.421Z,1003.55
2023-03-11T09:53:07.338Z,1003.58
2023-03-11T09:54:07.361Z,1003.58
2023-03-11T09:55:07.364Z,1003.59
2023-03-11T09:56:07.373Z,1003.56
2023-03-11T09:57:07.416Z,1003.58
2023-03-11T09:58:07.385Z,1003.60
2023-03-11T09:59:07.348Z,1003.64
2023-03-11T10:00:07.347Z,1003.59
2023-03-11T10:01:07.339Z,1003.64
2023-03-11T10:02:07.476Z,1003.61
2023-03-11T10:13:21.928Z,1003.75
2023-03-11T10:14:21.855Z,1003.75
2023-03-11T10:15:21.875Z,1003.77
2023-03-11T10:16:21.940Z,1003.78
2023-03-11T10:17:21.855Z,1003.79
2023-03-11T10:18:21.857Z,1003.80
2023-03-11T10:19:21.844Z,1003.81
2023-03-11T10:20:22.027Z,1003.80
2023-03-11T10:21:24.536Z,1003.84
2023-03-11T10:22:21.874Z,1003.83
2023-03-11T10:23:21.850Z,1003.83
2023-03-11T10:24:21.848Z,1003.83
2023-03-11T10:25:21.885Z,1003.81
2023-03-11T10:26:21.880Z,1003.84
2023-03-11T10:27:21.841Z,1003.81
2023-03-11T10:28:21.850Z,1003.83
2023-03-11T10:29:21.849Z,1003.86
2023-03-11T10:30:21.913Z,1003.83
2023-03-11T10:31:21.919Z,1003.86
2023-03-11T10:32:21.885Z,1003.89
2023-03-11T10:33:21.844Z,1003.91
2023-03-11T10:34:21.854Z,1003.92
2023-03-11T10:35:21.836Z,1003.94
2023-03-11T10:36:21.882Z,1003.97
2023-03-11T10:37:21.833Z,1003.97
2023-03-11T10:38:21.866Z,1003.99
2023-03-11T10:39:21.852Z,1004.00
2023-03-11T10:40:23.755Z,1004.01
2023-03-11T10:41:21.841Z,1004.02
2023-03-11T10:42:21.861Z,1004.00
2023-03-11T10:43:21.853Z,1004.05
2023-03-11T10:44:21.843Z,1004.02
2023-03-11T10:45:21.872Z,1004.07
2023-03-11T10:46:21.833Z,1004.03
2023-03-11T10:47:21.860Z,1004.06
2023-03-11T10:48:21.925Z,1004.04
2023-03-11T10:49:21.854Z,1004.03
2023-03-11T10:50:21.949Z,1004.03
2023-03-11T10:51:21.843Z,1004.03
2023-03-11T10:52:21.850Z,1004.04
2023-03-11T10:53:21.908Z,1004.05
2023-03-11T10:54:21.885Z,1004.04
2023-03-11T10:55:21.856Z,1004.06
2023-03-11T10:56:21.844Z,1004.06
2023-03-11T10:57:21.876Z,1004.05
2023-03-11T10:58:21.846Z,1004.05
2023-03-11T10:59:21.845Z,1004.03
2023-03-11T11:00:21.853Z,1004.04
2023-03-11T11:01:22.124Z,1004.11
2023-03-11T11:02:21.858Z,1004.11
2023-03-11T11:03:21.862Z,1004.11
2023-03-11T11:04:21.901Z,1004.07
2023-03-11T11:05:21.883Z,1004.05
2023-03-11T11:06:21.895Z,1004.09
2023-03-11T11:07:21.903Z,1004.07
2023-03-11T11:08:21.872Z,1004.05
2023-03-11T11:09:21.871Z,1004.06
2023-03-11T11:10:21.912Z,1004.09
2023-03-11T11:11:21.868Z,1004.08
2023-03-11T11:12:21.870Z,1004.11
2023-03-11T11:13:21.868Z,1004.07
2023-03-11T11:14:21.897Z,1004.11
2023-03-11T11:15:21.867Z,1004.09
2023-03-11T11:16:21.951Z,1004.13
2023-03-11T11:17:21.921Z,1004.11
2023-03-11T11:18:21.908Z,1004.11
2023-03-11T11:19:21.876Z,1004.15
2023-03-11T11:20:21.889Z,1004.12
2023-03-11T11:21:21.887Z,1004.16
2023-03-11T11:22:21.900Z,1004.14
2023-03-11T11:23:21.903Z,1004.15
2023-03-11T11:24:21.935Z,1004.18
2023-03-11T11:25:21.931Z,1004.13
2023-03-11T11:26:21.893Z,1004.15
2023-03-11T11:27:21.960Z,1004.20
2023-03-11T11:28:21.940Z,1004.15
2023-03-11T11:29:21.916Z,1004.18
2023-03-11T11:30:21.897Z,1004.21
2023-03-11T11:31:21.904Z,1004.23
2023-03-11T11:32:22.057Z,1004.23
2023-03-11T11:33:21.977Z,1004.23
2023-03-11T11:34:23.137Z,1004.17
2023-03-11T11:35:21.950Z,1004.17
2023-03-11T11:36:21.935Z,1004.20
2023-03-11T11:37:21.921Z,1004.19
2023-03-11T11:38:21.917Z,1004.14
2023-03-11T11:39:21.948Z,1004.19
2023-03-11T11:40:21.918Z,1004.20
2023-03-11T11:41:21.922Z,1004.19
2023-03-11T11:42:21.924Z,1004.19
2023-03-11T11:43:21.927Z,1004.18
2023-03-11T11:44:21.983Z,1004.17
2023-03-11T11:45:21.940Z,1004.17
2023-03-11T11:46:22.003Z,1004.17
2023-03-11T11:47:21.954Z,1004.17
2023-03-11T11:48:21.962Z,1004.13
2023-03-11T11:49:21.975Z,1004.12
2023-03-11T11:50:21.947Z,1004.15
2023-03-11T11:51:21.963Z,1004.14
2023-03-11T11:52:21.988Z,1004.16
2023-03-11T11:53:21.960Z,1004.14
2023-03-11T11:54:21.977Z,1004.09
2023-03-11T11:55:21.981Z,1004.10
2023-03-11T11:56:21.966Z,1004.08
2023-03-11T11:57:22.015Z,1004.08
2023-03-11T11:58:21.969Z,1004.10
2023-03-11T11:59:21.988Z,1004.09
2023-03-11T12:00:21.986Z,1004.09
2023-03-11T12:01:21.991Z,1004.07
2023-03-11T12:02:22.027Z,1004.07
2023-03-11T12:03:22.102Z,1004.07
2023-03-11T12:04:22.013Z,1004.07
2023-03-11T12:05:22.051Z,1004.10
2023-03-11T12:06:22.013Z,1004.08
2023-03-11T12:07:22.005Z,1004.13
2023-03-11T12:08:22.037Z,1004.14
2023-03-11T12:09:22.021Z,1004.13
2023-03-11T12:10:23.908Z,1004.20
2023-03-11T12:11:22.046Z,1004.17
2023-03-11T12:12:22.060Z,1004.19
2023-03-11T12:13:22.028Z,1004.18
2023-03-11T12:14:22.039Z,1004.14
2023-03-11T12:15:22.040Z,1004.17
2023-03-11T12:16:22.047Z,1004.11
2023-03-11T12:17:22.133Z,1004.12
2023-03-11T12:18:22.046Z,1004.10
2023-03-11T12:19:22.066Z,1004.12
2023-03-11T12:20:22.068Z,1004.14
2023-03-11T12:21:22.096Z,1004.10
2023-03-11T12:22:22.078Z,1004.15
2023-03-11T12:23:22.078Z,1004.12
2023-03-11T12:24:22.084Z,1004.16
2023-03-11T12:25:22.176Z,1004.16
2023-03-11T12:26:22.188Z,1004.13
2023-03-11T12:27:22.187Z,1004.10
2023-03-11T12:28:22.089Z,1004.09
2023-03-11T12:29:22.195Z,1004.09
2023-03-11T12:30:22.110Z,1004.09
2023-03-11T12:31:22.170Z,1004.12
2023-03-11T12:32:22.130Z,1004.13
2023-03-11T12:33:22.139Z,1004.13
2023-03-11T12:34:22.134Z,1004.13
2023-03-11T12:35:22.130Z,1004.14
2023-03-11T12:36:22.141Z,1004.12
2023-03-11T12:37:22.154Z,1004.12
2023-03-11T12:38:22.141Z,1004.14
2023-03-11T12:39:22.136Z,1004.16
2023-03-11T12:40:22.152Z,1004.16
2023-03-11T12:41:22.156Z,1004.16
2023-03-11T12:42:22.168Z,1004.16
2023-03-11T12:43:22.161Z,1004.21
2023-03-11T12:44:22.227Z,1004.22
2023-03-11T12:45:22.179Z,1004.24
2023-03-11T12:46:22.213Z,1004.24
2023-03-11T12:47:22.201Z,1004.22
2023-03-11T12:48:22.185Z,1004.25
2023-03-11T12:49:22.221Z,1004.24
2023-03-11T12:50:22.217Z,1004.26
2023-03-11T12:51:22.209Z,1004.25
2023-03-11T12:52:22.233Z,1004.28
2023-03-11T12:53:22.238Z,1004.28
2023-03-11T12:54:22.235Z,1004.29
2023-03-11T12:55:22.232Z,1004.31
2023-03-11T12:56:22.254Z,1004.32
2023-03-11T12:57:22.228Z,1004.31
2023-03-11T12:58:23.879Z,1004.27
2023-03-11T12:59:22.270Z,1004.24
2023-03-11T13:00:22.267Z,1004.26
2023-03-11T13:01:22.281Z,1004.25
2023-03-11T13:02:22.263Z,1004.25
2023-03-11T13:03:22.303Z,1004.23
2023-03-11T13:04:22.313Z,1004.29
2023-03-11T13:05:22.299Z,1004.30
2023-03-11T13:06:22.323Z,1004.26
2023-03-11T13:07:22.478Z,1004.20
2023-03-11T13:08:22.326Z,1004.24
2023-03-11T13:09:22.334Z,1004.22
2023-03-11T13:10:22.329Z,1004.25
2023-03-11T13:11:22.325Z,1004.26
2023-03-11T13:12:22.346Z,1004.29
2023-03-11T13:13:22.339Z,1004.29
2023-03-11T13:14:22.361Z,1004.34
2023-03-11T13:15:22.375Z,1004.30
2023-03-11T13:16:22.402Z,1004.37
2023-03-11T13:17:22.363Z,1004.32
2023-03-11T13:18:22.371Z,1004.34
2023-03-11T13:19:22.421Z,1004.37
2023-03-11T13:20:22.378Z,1004.40
2023-03-11T13:21:22.401Z,1004.40
2023-03-11T13:22:22.388Z,1004.40
2023-03-11T13:23:22.418Z,1004.36
2023-03-11T13:24:22.452Z,1004.37
2023-03-11T13:25:22.443Z,1004.37
2023-03-11T13:26:22.427Z,1004.36
2023-03-11T13:27:22.432Z,1004.40
2023-03-11T13:28:22.480Z,1004.39
2023-03-11T13:29:22.479Z,1004.40
2023-03-11T13:30:22.467Z,1004.42
2023-03-11T13:31:22.563Z,1004.37
2023-03-11T13:32:22.549Z,1004.41
2023-03-11T13:33:22.520Z,1004.42
2023-03-11T13:34:22.506Z,1004.44
2023-03-11T13:37:55.547Z,1004.40
2023-03-11T13:38:55.522Z,1004.43
2023-03-11T13:39:55.559Z,1004.42
2023-03-11T13:40:55.549Z,1004.38
2023-03-11T13:41:55.545Z,1004.43
2023-03-11T13:42:55.554Z,1004.44
2023-03-11T13:43:55.549Z,1004.40
2023-03-11T13:44:55.592Z,1004.42
2023-03-11T13:45:55.591Z,1004.42
2023-03-11T13:46:55.563Z,1004.46
2023-03-11T13:47:55.561Z,1004.48
2023-03-11T13:48:55.579Z,1004.44
2023-03-11T13:49:55.596Z,1004.47
2023-03-11T13:50:55.651Z,1004.51
2023-03-11T13:51:55.594Z,1004.53
2023-03-11T13:52:55.598Z,1004.51
2023-03-11T13:53:55.619Z,1004.50
2023-03-11T13:54:55.627Z,1004.48
2023-03-11T13:55:55.642Z,1004.53
2023-03-11T13:56:55.662Z,1004.53
2023-03-11T13:57:55.636Z,1004.59
2023-03-11T13:58:55.642Z,1004.59
2023-03-11T13:59:55.644Z,1004.59
2023-03-11T14:00:55.698Z,1004.58
2023-03-11T14:01:55.704Z,1004.60
2023-03-11T14:02:55.670Z,1004.59
2023-03-11T14:03:55.760Z,1004.62
2023-03-11T14:04:55.671Z,1004.64
2023-03-11T14:05:55.683Z,1004.66
2023-03-11T14:06:55.809Z,1004.65
2023-03-11T14:07:55.745Z,1004.71
2023-03-11T14:08:55.730Z,1004.71
2023-03-11T14:09:55.701Z,1004.69
2023-03-11T14:10:55.732Z,1004.71
2023-03-11T14:11:55.711Z,1004.69
2023-03-11T14:12:55.763Z,1004.69
2023-03-11T14:13:55.763Z,1004.73
2023-03-11T14:14:55.728Z,1004.72
2023-03-11T14:15:55.757Z,1004.76
2023-03-11T14:16:55.910Z,1004.74
2023-03-11T14:17:55.762Z,1004.72
2023-03-11T14:18:55.741Z,1004.75
2023-03-11T14:19:55.834Z,1004.75
2023-03-11T14:20:55.814Z,1004.77
2023-03-11T14:21:55.748Z,1004.79
2023-03-11T14:22:55.776Z,1004.78
2023-03-11T14:23:55.765Z,1004.80
2023-03-11T14:24:55.759Z,1004.82
2023-03-11T14:25:55.778Z,1004.83
2023-03-11T14:26:55.782Z,1004.83
2023-03-11T14:27:55.776Z,1004.85
2023-03-11T14:28:55.868Z,1004.83
2023-03-11T14:29:55.789Z,1004.87
2023-03-11T14:30:55.796Z,1004.92
2023-03-11T14:31:55.868Z,1004.90
2023-03-11T14:32:55.854Z,1004.89
2023-03-11T14:33:55.828Z,1004.94
2023-03-11T14:34:55.833Z,1004.93
2023-03-11T14:35:55.861Z,1004.91
2023-03-11T14:36:55.837Z,1004.93
2023-03-11T14:37:55.832Z,1004.90
2023-03-11T14:38:55.877Z,1004.93
2023-03-11T14:39:55.845Z,1004.92
2023-03-11T14:40:55.859Z,1004.93
2023-03-11T14:41:55.863Z,1004.93
2023-03-11T14:42:55.848Z,1004.91
2023-03-11T14:43:55.882Z,1004.89
2023-03-11T14:44:55.877Z,1004.90
2023-03-11T14:45:55.904Z,1004.90
2023-03-11T14:46:55.891Z,1004.91
2023-03-11T14:47:55.877Z,1004.94
2023-03-11T14:48:55.913Z,1004.96
2023-03-11T14:49:55.884Z,1004.94
2023-03-11T14:50:55.890Z,1004.94
2023-03-11T14:51:55.896Z,1004.90
2023-03-11T14:52:55.929Z,1004.92
2023-03-11T14:53:55.935Z,1004.92
2023-03-11T14:54:55.923Z,1004.95
2023-03-11T14:55:55.934Z,1004.91
2023-03-11T14:56:55.914Z,1004.93
2023-03-11T14:57:55.931Z,1004.91
2023-03-11T14:59:07.018Z,1004.89
2023-03-11T14:59:55.948Z,1004.88
2023-03-11T15:00:56.031Z,1004.88
2023-03-11T15:01:55.963Z,1004.87
2023-03-11T15:02:56.105Z,1004.87
2023-03-11T15:03:55.956Z,1004.86
2023-03-11T15:04:55.966Z,1004.85
2023-03-11T15:05:55.973Z,1004.83
2023-03-11T15:06:56.009Z,1004.84
2023-03-11T15:07:55.980Z,1004.82
2023-03-11T15:08:55.999Z,1004.80
2023-03-11T15:09:56.000Z,1004.81
2023-03-11T15:10:55.997Z,1004.78
2023-03-11T15:11:56.023Z,1004.80
2023-03-11T15:12:56.003Z,1004.81
2023-03-11T15:13:56.023Z,1004.78
2023-03-11T15:14:56.031Z,1004.80
2023-03-11T15:15:56.030Z,1004.75
2023-03-11T15:16:56.177Z,1004.77
2023-03-11T15:17:56.040Z,1004.78
2023-03-11T15:18:56.044Z,1004.77
2023-03-11T15:19:56.063Z,1004.79
2023-03-11T15:20:56.052Z,1004.80
2023-03-11T15:21:56.041Z,1004.77
2023-03-11T15:22:57.594Z,1004.79
2023-03-11T15:23:56.085Z,1004.77
2023-03-11T15:24:56.059Z,1004.82
2023-03-11T15:25:56.101Z,1004.80
2023-03-11T15:26:56.104Z,1004.85
2023-03-11T15:27:56.107Z,1004.82
2023-03-11T15:28:56.085Z,1004.81
2023-03-11T15:29:56.074Z,1004.83
2023-03-11T15:30:56.152Z,1004.84
2023-03-11T15:31:56.087Z,1004.82
2023-03-11T15:32:56.172Z,1004.86
2023-03-11T15:33:56.106Z,1004.84
2023-03-11T15:34:56.087Z,1004.83
2023-03-11T15:35:56.100Z,1004.86
2023-03-11T15:36:56.123Z,1004.85
2023-03-11T15:37:56.109Z,1004.84
2023-03-11T15:38:56.132Z,1004.86
2023-03-11T15:39:56.098Z,1004.87
2023-03-11T15:40:56.096Z,1004.88
2023-03-11T15:41:56.166Z,1004.85
2023-03-11T15:42:56.122Z,1004.84
2023-03-11T15:43:56.125Z,1004.85
2023-03-11T15:44:56.126Z,1004.85
2023-03-11T15:45:56.170Z,1004.88
2023-03-11T15:46:56.118Z,1004.87
2023-03-11T15:47:56.140Z,1004.88
2023-03-11T15:51:29.152Z,1004.85
2023-03-11T15:52:29.134Z,1004.86
2023-03-11T15:53:29.181Z,1004.86
2023-03-11T15:54:29.151Z,1004.86
2023-03-11T15:55:29.160Z,1004.88
2023-03-11T15:56:29.134Z,1004.87
2023-03-11T15:57:29.154Z,1004.83
2023-03-11T15:58:29.146Z,1004.83
2023-03-11T15:59:29.165Z,1004.87
2023-03-11T16:00:29.147Z,1004.82
2023-03-11T16:12:34.743Z,1004.91
2023-03-11T16:13:34.708Z,1004.94
2023-03-11T16:14:34.719Z,1004.90
2023-03-11T16:15:34.719Z,1004.92
2023-03-11T16:16:34.711Z,1004.93
2023-03-11T16:17:48.813Z,1004.97
2023-03-11T16:18:34.680Z,1004.97
2023-03-11T16:19:34.690Z,1004.99
2023-03-11T16:20:34.694Z,1004.98
2023-03-11T16:21:34.666Z,1004.94
2023-03-11T16:22:34.667Z,1004.95
2023-03-11T16:23:50.200Z,1004.97
2023-03-11T16:24:34.659Z,1004.96
2023-03-11T16:25:34.683Z,1004.98
2023-03-11T16:26:34.679Z,1004.96
2023-03-11T16:27:34.664Z,1004.99
2023-03-11T16:28:34.684Z,1005.00
2023-03-11T16:29:34.660Z,1005.01
2023-03-11T16:30:34.674Z,1005.00
2023-03-11T16:31:34.705Z,1005.05
2023-03-11T16:32:34.734Z,1005.04
2023-03-11T16:33:34.662Z,1004.98
2023-03-11T16:34:34.652Z,1005.00
2023-03-11T16:35:34.661Z,1004.99
2023-03-11T16:36:34.639Z,1005.04
2023-03-11T16:37:34.651Z,1005.02
2023-03-11T16:38:34.665Z,1005.01